sensor_id;sensor_type;location;lat;lon;timestamp;temperature;humidity
13806;DHT22;6974;53.606;9.872;2024-03-29T00:02:18;9.40;99.90
13806;DHT22;6974;53.606;9.872;2024-03-29T00:04:44;9.40;99.90
13806;DHT22;6974;53.606;9.872;2024-03-29T00:07:10;9.50;99.90
13806;DHT22;6974;53.606;9.872;2024-03-29T00:09:36;9.40;99.90
13806;DHT22;6974;53.606;9.872;2024-03-29T00:12:03;9.50;99.90
13806;DHT22;6974;53.606;9.872;2024-03-29T00:14:31;9.40;99.90
13806;DHT22;6974;53.606;9.872;2024-03-29T00:16:57;9.50;99.90
13806;DHT22;6974;53.606;9.872;2024-03-29T00:19:24;9.50;99.90
13806;DHT22;6974;53.606;9.872;2024-03-29T00:21:51;9.50;99.90
13806;DHT22;6974;53.606;9.872;2024-03-29T00:24:17;9.50;99.90
13806;DHT22;6974;53.606;9.872;2024-03-29T00:26:43;9.40;99.90
13806;DHT22;6974;53.606;9.872;2024-03-29T00:29:09;9.40;99.90
13806;DHT22;6974;53.606;9.872;2024-03-29T00:31:36;9.40;99.90
13806;DHT22;6974;53.606;9.872;2024-03-29T00:34:04;9.40;99.90
13806;DHT22;6974;53.606;9.872;2024-03-29T00:36:32;9.40;99.90
13806;DHT22;6974;53.606;9.872;2024-03-29T00:38:58;9.40;99.90
13806;DHT22;6974;53.606;9.872;2024-03-29T00:41:24;9.40;99.90
13806;DHT22;6974;53.606;9.872;2024-03-29T00:43:51;9.40;99.90
13806;DHT22;6974;53.606;9.872;2024-03-29T00:46:18;9.40;99.90
13806;DHT22;6974;53.606;9.872;2024-03-29T00:48:44;9.40;99.90
13806;DHT22;6974;53.606;9.872;2024-03-29T00:51:10;9.40;99.90
13806;DHT22;6974;53.606;9.872;2024-03-29T00:53:38;9.40;99.90
13806;DHT22;6974;53.606;9.872;2024-03-29T00:56:04;9.40;99.90
13806;DHT22;6974;53.606;9.872;2024-03-29T00:58:31;9.30;99.90
13806;DHT22;6974;53.606;9.872;2024-03-29T01:00:57;9.40;99.90
13806;DHT22;6974;53.606;9.872;2024-03-29T01:03:23;9.30;99.90
13806;DHT22;6974;53.606;9.872;2024-03-29T01:05:49;9.30;99.90
13806;DHT22;6974;53.606;9.872;2024-03-29T01:08:15;9.30;99.90
13806;DHT22;6974;53.606;9.872;2024-03-29T01:10:43;9.30;99.90
13806;DHT22;6974;53.606;9.872;2024-03-29T01:13:10;9.30;99.90
13806;DHT22;6974;53.606;9.872;2024-03-29T01:15:36;9.30;99.90
13806;DHT22;6974;53.606;9.872;2024-03-29T01:18:03;9.20;99.90
13806;DHT22;6974;53.606;9.872;2024-03-29T01:20:30;9.20;99.90
13806;DHT22;6974;53.606;9.872;2024-03-29T01:22:56;9.20;99.90
13806;DHT22;6974;53.606;9.872;2024-03-29T01:25:24;9.20;99.90
13806;DHT22;6974;53.606;9.872;2024-03-29T01:27:53;9.20;99.90
13806;DHT22;6974;53.606;9.872;2024-03-29T01:30:19;9.10;99.90
13806;DHT22;6974;53.606;9.872;2024-03-29T01:32:45;9.10;99.90
13806;DHT22;6974;53.606;9.872;2024-03-29T01:35:11;9.20;99.90
13806;DHT22;6974;53.606;9.872;2024-03-29T01:37:37;9.10;99.90
13806;DHT22;6974;53.606;9.872;2024-03-29T01:40:05;9.20;99.90
13806;DHT22;6974;53.606;9.872;2024-03-29T01:42:32;9.20;99.90
13806;DHT22;6974;53.606;9.872;2024-03-29T01:44:59;9.10;99.90
13806;DHT22;6974;53.606;9.872;2024-03-29T01:47:27;9.10;99.90
13806;DHT22;6974;53.606;9.872;2024-03-29T01:49:54;9.10;99.90
13806;DHT22;6974;53.606;9.872;2024-03-29T01:52:23;9.10;99.90
13806;DHT22;6974;53.606;9.872;2024-03-29T01:54:51;9.10;99.90
13806;DHT22;6974;53.606;9.872;2024-03-29T01:57:18;9.10;99.90
13806;DHT22;6974;53.606;9.872;2024-03-29T01:59:46;9.10;99.90
13806;DHT22;6974;53.606;9.872;2024-03-29T02:02:15;9.10;99.90
13806;DHT22;6974;53.606;9.872;2024-03-29T02:04:42;9.10;99.90
13806;DHT22;6974;53.606;9.872;2024-03-29T02:07:09;9.10;99.90
13806;DHT22;6974;53.606;9.872;2024-03-29T02:09:37;9.10;99.90
13806;DHT22;6974;53.606;9.872;2024-03-29T02:12:04;9.00;99.90
13806;DHT22;6974;53.606;9.872;2024-03-29T02:14:32;9.00;99.90
13806;DHT22;6974;53.606;9.872;2024-03-29T02:16:58;9.00;99.90
13806;DHT22;6974;53.606;9.872;2024-03-29T02:19:26;8.90;99.90
13806;DHT22;6974;53.606;9.872;2024-03-29T02:21:56;8.90;99.90
13806;DHT22;6974;53.606;9.872;2024-03-29T02:24:27;9.00;99.90
13806;DHT22;6974;53.606;9.872;2024-03-29T02:26:56;9.00;99.90
13806;DHT22;6974;53.606;9.872;2024-03-29T02:29:23;9.00;99.90
13806;DHT22;6974;53.606;9.872;2024-03-29T02:31:50;9.00;99.90
13806;DHT22;6974;53.606;9.872;2024-03-29T02:34:17;9.00;99.90
13806;DHT22;6974;53.606;9.872;2024-03-29T02:36:44;9.00;99.90
13806;DHT22;6974;53.606;9.872;2024-03-29T02:39:11;9.00;99.90
13806;DHT22;6974;53.606;9.872;2024-03-29T02:44:13;9.00;99.90
13806;DHT22;6974;53.606;9.872;2024-03-29T02:46:41;9.00;99.90
13806;DHT22;6974;53.606;9.872;2024-03-29T02:49:08;9.00;99.90
13806;DHT22;6974;53.606;9.872;2024-03-29T02:51:36;9.00;99.90
13806;DHT22;6974;53.606;9.872;2024-03-29T02:54:05;9.00;99.90
13806;DHT22;6974;53.606;9.872;2024-03-29T02:56:34;9.00;99.90
13806;DHT22;6974;53.606;9.872;2024-03-29T02:59:00;9.00;99.90
13806;DHT22;6974;53.606;9.872;2024-03-29T03:01:28;9.00;99.90
13806;DHT22;6974;53.606;9.872;2024-03-29T03:03:54;8.90;99.90
13806;DHT22;6974;53.606;9.872;2024-03-29T03:06:21;8.90;99.90
13806;DHT22;6974;53.606;9.872;2024-03-29T03:08:47;8.90;99.90
13806;DHT22;6974;53.606;9.872;2024-03-29T03:11:31;8.90;99.90
13806;DHT22;6974;53.606;9.872;2024-03-29T03:13:59;8.90;99.90
13806;DHT22;6974;53.606;9.872;2024-03-29T03:16:25;8.90;99.90
13806;DHT22;6974;53.606;9.872;2024-03-29T03:18:54;8.90;99.90
13806;DHT22;6974;53.606;9.872;2024-03-29T03:21:20;8.90;99.90
13806;DHT22;6974;53.606;9.872;2024-03-29T03:23:47;8.90;99.90
13806;DHT22;6974;53.606;9.872;2024-03-29T03:26:15;8.90;99.90
13806;DHT22;6974;53.606;9.872;2024-03-29T03:28:41;8.90;99.90
13806;DHT22;6974;53.606;9.872;2024-03-29T03:31:08;8.80;99.90
13806;DHT22;6974;53.606;9.872;2024-03-29T03:33:35;8.80;99.90
13806;DHT22;6974;53.606;9.872;2024-03-29T03:36:03;8.90;99.90
13806;DHT22;6974;53.606;9.872;2024-03-29T03:38:30;8.80;99.90
13806;DHT22;6974;53.606;9.872;2024-03-29T03:40:58;8.80;99.90
13806;DHT22;6974;53.606;9.872;2024-03-29T03:43:25;8.80;99.90
13806;DHT22;6974;53.606;9.872;2024-03-29T03:45:52;8.80;99.90
13806;DHT22;6974;53.606;9.872;2024-03-29T03:48:18;8.80;99.90
13806;DHT22;6974;53.606;9.872;2024-03-29T03:50:45;8.80;99.90
13806;DHT22;6974;53.606;9.872;2024-03-29T03:53:12;8.80;99.90
13806;DHT22;6974;53.606;9.872;2024-03-29T03:55:39;8.80;99.90
13806;DHT22;6974;53.606;9.872;2024-03-29T03:58:05;8.80;99.90
13806;DHT22;6974;53.606;9.872;2024-03-29T04:00:33;8.80;99.90
13806;DHT22;6974;53.606;9.872;2024-03-29T04:02:59;8.70;99.90
13806;DHT22;6974;53.606;9.872;2024-03-29T04:05:26;8.70;99.90
13806;DHT22;6974;53.606;9.872;2024-03-29T04:07:52;8.70;99.90
13806;DHT22;6974;53.606;9.872;2024-03-29T04:10:20;8.70;99.90
13806;DHT22;6974;53.606;9.872;2024-03-29T04:12:46;8.70;99.90
13806;DHT22;6974;53.606;9.872;2024-03-29T04:15:13;8.70;99.90
13806;DHT22;6974;53.606;9.872;2024-03-29T04:17:39;8.70;99.90
13806;DHT22;6974;53.606;9.872;2024-03-29T04:20:08;8.60;99.90
13806;DHT22;6974;53.606;9.872;2024-03-29T04:22:34;8.70;99.90
13806;DHT22;6974;53.606;9.872;2024-03-29T04:25:01;8.60;99.90
13806;DHT22;6974;53.606;9.872;2024-03-29T04:27:31;8.60;99.90
13806;DHT22;6974;53.606;9.872;2024-03-29T04:29:59;8.60;99.90
13806;DHT22;6974;53.606;9.872;2024-03-29T04:32:25;8.60;99.90
13806;DHT22;6974;53.606;9.872;2024-03-29T04:34:52;8.50;99.90
13806;DHT22;6974;53.606;9.872;2024-03-29T04:37:19;8.50;99.90
13806;DHT22;6974;53.606;9.872;2024-03-29T04:39:46;8.50;99.90
13806;DHT22;6974;53.606;9.872;2024-03-29T04:42:13;8.50;99.90
13806;DHT22;6974;53.606;9.872;2024-03-29T04:44:42;8.50;99.90
13806;DHT22;6974;53.606;9.872;2024-03-29T04:47:08;8.50;99.90
13806;DHT22;6974;53.606;9.872;2024-03-29T04:49:36;8.50;99.90
13806;DHT22;6974;53.606;9.872;2024-03-29T04:52:04;8.50;99.90
13806;DHT22;6974;53.606;9.872;2024-03-29T04:54:31;8.50;99.90
13806;DHT22;6974;53.606;9.872;2024-03-29T04:56:59;8.50;99.90
13806;DHT22;6974;53.606;9.872;2024-03-29T04:59:27;8.50;99.90
13806;DHT22;6974;53.606;9.872;2024-03-29T05:01:58;8.50;99.90
13806;DHT22;6974;53.606;9.872;2024-03-29T05:04:25;8.50;99.90
13806;DHT22;6974;53.606;9.872;2024-03-29T05:06:52;8.60;99.90
13806;DHT22;6974;53.606;9.872;2024-03-29T05:09:20;8.60;99.90
13806;DHT22;6974;53.606;9.872;2024-03-29T05:11:47;8.60;99.90
13806;DHT22;6974;53.606;9.872;2024-03-29T05:14:17;8.60;99.90
13806;DHT22;6974;53.606;9.872;2024-03-29T05:16:45;8.60;99.90
13806;DHT22;6974;53.606;9.872;2024-03-29T05:19:14;8.60;99.90
13806;DHT22;6974;53.606;9.872;2024-03-29T05:21:41;8.60;99.90
13806;DHT22;6974;53.606;9.872;2024-03-29T05:24:09;8.70;99.90
13806;DHT22;6974;53.606;9.872;2024-03-29T05:26:36;8.70;99.90
13806;DHT22;6974;53.606;9.872;2024-03-29T05:29:03;8.70;99.90
13806;DHT22;6974;53.606;9.872;2024-03-29T05:31:30;8.70;99.90
13806;DHT22;6974;53.606;9.872;2024-03-29T05:33:57;8.70;99.90
13806;DHT22;6974;53.606;9.872;2024-03-29T05:36:28;8.70;99.90
13806;DHT22;6974;53.606;9.872;2024-03-29T05:38:55;8.80;99.90
13806;DHT22;6974;53.606;9.872;2024-03-29T05:41:22;8.80;99.90
13806;DHT22;6974;53.606;9.872;2024-03-29T05:43:50;8.80;99.90
13806;DHT22;6974;53.606;9.872;2024-03-29T05:46:17;8.80;99.90
13806;DHT22;6974;53.606;9.872;2024-03-29T05:48:44;8.80;99.90
13806;DHT22;6974;53.606;9.872;2024-03-29T05:51:11;8.80;99.90
13806;DHT22;6974;53.606;9.872;2024-03-29T05:53:40;8.90;99.90
13806;DHT22;6974;53.606;9.872;2024-03-29T05:56:07;8.90;99.90
13806;DHT22;6974;53.606;9.872;2024-03-29T05:58:34;8.90;99.90
13806;DHT22;6974;53.606;9.872;2024-03-29T06:01:01;8.90;99.90
13806;DHT22;6974;53.606;9.872;2024-03-29T06:03:29;8.90;99.90
13806;DHT22;6974;53.606;9.872;2024-03-29T06:05:56;8.90;99.90
13806;DHT22;6974;53.606;9.872;2024-03-29T06:08:24;9.00;99.90
13806;DHT22;6974;53.606;9.872;2024-03-29T06:10:54;9.00;99.90
13806;DHT22;6974;53.606;9.872;2024-03-29T06:13:22;9.00;99.90
13806;DHT22;6974;53.606;9.872;2024-03-29T06:16:16;9.00;99.90
13806;DHT22;6974;53.606;9.872;2024-03-29T06:19:01;9.00;99.90
13806;DHT22;6974;53.606;9.872;2024-03-29T06:21:28;9.10;99.90
13806;DHT22;6974;53.606;9.872;2024-03-29T06:23:58;9.10;99.90
13806;DHT22;6974;53.606;9.872;2024-03-29T06:26:27;9.20;99.90
13806;DHT22;6974;53.606;9.872;2024-03-29T06:28:54;9.20;99.90
13806;DHT22;6974;53.606;9.872;2024-03-29T06:31:20;9.20;99.90
13806;DHT22;6974;53.606;9.872;2024-03-29T06:33:47;9.20;99.90
13806;DHT22;6974;53.606;9.872;2024-03-29T06:36:14;9.20;99.90
13806;DHT22;6974;53.606;9.872;2024-03-29T06:38:41;9.20;99.90
13806;DHT22;6974;53.606;9.872;2024-03-29T06:41:08;9.20;99.90
13806;DHT22;6974;53.606;9.872;2024-03-29T06:43:36;9.30;99.90
13806;DHT22;6974;53.606;9.872;2024-03-29T06:46:04;9.30;99.90
13806;DHT22;6974;53.606;9.872;2024-03-29T06:48:31;9.30;99.90
13806;DHT22;6974;53.606;9.872;2024-03-29T06:50:58;9.40;99.90
13806;DHT22;6974;53.606;9.872;2024-03-29T06:53:25;9.30;99.90
13806;DHT22;6974;53.606;9.872;2024-03-29T06:55:54;9.30;99.90
13806;DHT22;6974;53.606;9.872;2024-03-29T06:58:21;9.40;99.90
13806;DHT22;6974;53.606;9.872;2024-03-29T07:00:50;9.40;99.90
13806;DHT22;6974;53.606;9.872;2024-03-29T07:03:18;9.50;99.90
13806;DHT22;6974;53.606;9.872;2024-03-29T07:05:45;9.60;99.90
13806;DHT22;6974;53.606;9.872;2024-03-29T07:08:13;9.60;99.90
13806;DHT22;6974;53.606;9.872;2024-03-29T07:10:40;9.60;99.90
13806;DHT22;6974;53.606;9.872;2024-03-29T07:13:07;9.70;99.90
13806;DHT22;6974;53.606;9.872;2024-03-29T07:15:34;9.70;99.90
13806;DHT22;6974;53.606;9.872;2024-03-29T07:18:02;9.70;99.90
13806;DHT22;6974;53.606;9.872;2024-03-29T07:20:29;9.80;99.90
13806;DHT22;6974;53.606;9.872;2024-03-29T07:22:56;9.80;99.90
13806;DHT22;6974;53.606;9.872;2024-03-29T07:25:24;9.80;99.90
13806;DHT22;6974;53.606;9.872;2024-03-29T07:27:52;9.80;99.90
13806;DHT22;6974;53.606;9.872;2024-03-29T07:30:20;9.90;99.90
13806;DHT22;6974;53.606;9.872;2024-03-29T07:32:48;9.90;99.90
13806;DHT22;6974;53.606;9.872;2024-03-29T07:35:16;10.00;99.90
13806;DHT22;6974;53.606;9.872;2024-03-29T07:37:44;10.00;99.90
13806;DHT22;6974;53.606;9.872;2024-03-29T07:40:14;10.00;99.90
13806;DHT22;6974;53.606;9.872;2024-03-29T07:42:42;10.00;99.90
13806;DHT22;6974;53.606;9.872;2024-03-29T07:45:09;10.00;99.90
13806;DHT22;6974;53.606;9.872;2024-03-29T07:47:37;10.00;99.90
13806;DHT22;6974;53.606;9.872;2024-03-29T07:50:05;10.00;99.90
13806;DHT22;6974;53.606;9.872;2024-03-29T07:52:35;10.10;99.90
13806;DHT22;6974;53.606;9.872;2024-03-29T07:55:02;10.10;99.90
13806;DHT22;6974;53.606;9.872;2024-03-29T07:57:29;10.10;99.90
13806;DHT22;6974;53.606;9.872;2024-03-29T07:59:56;10.10;99.90
13806;DHT22;6974;53.606;9.872;2024-03-29T08:02:24;10.20;99.90
13806;DHT22;6974;53.606;9.872;2024-03-29T08:04:52;10.20;99.90
13806;DHT22;6974;53.606;9.872;2024-03-29T08:07:19;10.30;99.90
13806;DHT22;6974;53.606;9.872;2024-03-29T08:09:49;10.30;99.90
13806;DHT22;6974;53.606;9.872;2024-03-29T08:12:16;10.30;99.90
13806;DHT22;6974;53.606;9.872;2024-03-29T08:14:44;10.30;99.90
13806;DHT22;6974;53.606;9.872;2024-03-29T08:17:12;10.30;99.90
13806;DHT22;6974;53.606;9.872;2024-03-29T08:19:40;10.30;99.90
13806;DHT22;6974;53.606;9.872;2024-03-29T08:22:08;10.40;99.90
13806;DHT22;6974;53.606;9.872;2024-03-29T08:24:36;10.40;99.90
13806;DHT22;6974;53.606;9.872;2024-03-29T08:27:04;10.40;99.90
13806;DHT22;6974;53.606;9.872;2024-03-29T08:29:31;10.40;99.90
13806;DHT22;6974;53.606;9.872;2024-03-29T08:31:58;10.40;99.90
13806;DHT22;6974;53.606;9.872;2024-03-29T08:34:26;10.40;99.90
13806;DHT22;6974;53.606;9.872;2024-03-29T08:36:57;10.50;99.90
13806;DHT22;6974;53.606;9.872;2024-03-29T08:39:26;10.50;99.90
13806;DHT22;6974;53.606;9.872;2024-03-29T08:41:53;10.50;99.90
13806;DHT22;6974;53.606;9.872;2024-03-29T08:44:22;10.50;99.90
13806;DHT22;6974;53.606;9.872;2024-03-29T08:46:50;10.60;99.90
13806;DHT22;6974;53.606;9.872;2024-03-29T08:49:16;10.60;99.90
13806;DHT22;6974;53.606;9.872;2024-03-29T08:51:43;10.70;99.90
13806;DHT22;6974;53.606;9.872;2024-03-29T08:54:10;10.80;99.90
13806;DHT22;6974;53.606;9.872;2024-03-29T08:56:36;10.80;99.90
13806;DHT22;6974;53.606;9.872;2024-03-29T08:59:06;10.90;99.90
13806;DHT22;6974;53.606;9.872;2024-03-29T09:01:41;11.00;99.90
13806;DHT22;6974;53.606;9.872;2024-03-29T09:04:15;11.10;99.90
13806;DHT22;6974;53.606;9.872;2024-03-29T09:06:43;11.10;99.90
13806;DHT22;6974;53.606;9.872;2024-03-29T09:09:10;11.20;99.90
13806;DHT22;6974;53.606;9.872;2024-03-29T09:11:37;11.20;99.90
13806;DHT22;6974;53.606;9.872;2024-03-29T09:14:05;11.20;99.90
13806;DHT22;6974;53.606;9.872;2024-03-29T09:16:37;11.30;99.90
13806;DHT22;6974;53.606;9.872;2024-03-29T09:19:06;11.40;99.90
13806;DHT22;6974;53.606;9.872;2024-03-29T09:21:33;11.40;99.90
13806;DHT22;6974;53.606;9.872;2024-03-29T09:24:00;11.50;99.90
13806;DHT22;6974;53.606;9.872;2024-03-29T09:26:26;11.50;99.90
13806;DHT22;6974;53.606;9.872;2024-03-29T09:28:53;11.50;99.90
13806;DHT22;6974;53.606;9.872;2024-03-29T09:31:20;11.50;99.90
13806;DHT22;6974;53.606;9.872;2024-03-29T09:33:48;11.50;99.90
13806;DHT22;6974;53.606;9.872;2024-03-29T09:36:21;11.40;99.90
13806;DHT22;6974;53.606;9.872;2024-03-29T09:38:48;11.40;99.90
13806;DHT22;6974;53.606;9.872;2024-03-29T09:41:16;11.30;99.90
13806;DHT22;6974;53.606;9.872;2024-03-29T09:43:45;11.30;99.90
13806;DHT22;6974;53.606;9.872;2024-03-29T09:46:12;11.20;99.90
13806;DHT22;6974;53.606;9.872;2024-03-29T09:48:40;11.10;99.90
13806;DHT22;6974;53.606;9.872;2024-03-29T09:51:09;11.10;99.90
13806;DHT22;6974;53.606;9.872;2024-03-29T09:53:41;11.10;99.90
13806;DHT22;6974;53.606;9.872;2024-03-29T09:56:09;11.10;99.90
13806;DHT22;6974;53.606;9.872;2024-03-29T09:58:37;11.10;99.90
13806;DHT22;6974;53.606;9.872;2024-03-29T10:01:05;11.10;99.90
13806;DHT22;6974;53.606;9.872;2024-03-29T10:03:38;11.00;99.90
13806;DHT22;6974;53.606;9.872;2024-03-29T10:06:15;11.00;99.90
13806;DHT22;6974;53.606;9.872;2024-03-29T10:08:46;11.00;99.90
13806;DHT22;6974;53.606;9.872;2024-03-29T10:11:14;11.00;99.90
13806;DHT22;6974;53.606;9.872;2024-03-29T10:13:44;10.90;99.90
13806;DHT22;6974;53.606;9.872;2024-03-29T10:16:11;11.00;99.90
13806;DHT22;6974;53.606;9.872;2024-03-29T10:18:41;11.00;99.90
13806;DHT22;6974;53.606;9.872;2024-03-29T10:21:07;11.00;99.90
13806;DHT22;6974;53.606;9.872;2024-03-29T10:23:36;11.10;99.90
13806;DHT22;6974;53.606;9.872;2024-03-29T10:26:04;11.10;99.90
13806;DHT22;6974;53.606;9.872;2024-03-29T10:28:32;11.10;99.90
13806;DHT22;6974;53.606;9.872;2024-03-29T10:31:01;11.00;99.90
13806;DHT22;6974;53.606;9.872;2024-03-29T10:33:29;11.00;99.90
13806;DHT22;6974;53.606;9.872;2024-03-29T10:35:57;11.10;99.90
13806;DHT22;6974;53.606;9.872;2024-03-29T10:38:24;11.10;99.90
13806;DHT22;6974;53.606;9.872;2024-03-29T10:40:54;11.10;99.90
13806;DHT22;6974;53.606;9.872;2024-03-29T10:43:21;11.20;99.90
13806;DHT22;6974;53.606;9.872;2024-03-29T10:45:49;11.20;99.90
13806;DHT22;6974;53.606;9.872;2024-03-29T10:48:21;11.20;99.90
13806;DHT22;6974;53.606;9.872;2024-03-29T10:50:48;11.20;99.90
13806;DHT22;6974;53.606;9.872;2024-03-29T10:53:17;11.20;99.90
13806;DHT22;6974;53.606;9.872;2024-03-29T10:55:44;11.20;99.90
13806;DHT22;6974;53.606;9.872;2024-03-29T10:58:12;11.20;99.90
13806;DHT22;6974;53.606;9.872;2024-03-29T11:00:46;11.30;99.90
13806;DHT22;6974;53.606;9.872;2024-03-29T11:03:18;11.30;99.90
13806;DHT22;6974;53.606;9.872;2024-03-29T11:05:47;11.30;99.90
13806;DHT22;6974;53.606;9.872;2024-03-29T11:08:19;11.30;99.90
13806;DHT22;6974;53.606;9.872;2024-03-29T11:10:49;11.30;99.90
13806;DHT22;6974;53.606;9.872;2024-03-29T11:13:24;11.40;99.90
13806;DHT22;6974;53.606;9.872;2024-03-29T11:15:53;11.40;99.90
13806;DHT22;6974;53.606;9.872;2024-03-29T11:18:21;11.40;99.90
13806;DHT22;6974;53.606;9.872;2024-03-29T11:20:50;11.40;99.90
13806;DHT22;6974;53.606;9.872;2024-03-29T11:23:18;11.40;99.90
13806;DHT22;6974;53.606;9.872;2024-03-29T11:25:49;11.50;99.90
13806;DHT22;6974;53.606;9.872;2024-03-29T11:28:24;11.60;99.90
13806;DHT22;6974;53.606;9.872;2024-03-29T11:30:52;11.70;99.90
13806;DHT22;6974;53.606;9.872;2024-03-29T11:33:29;11.70;99.90
13806;DHT22;6974;53.606;9.872;2024-03-29T11:35:57;11.70;99.90
13806;DHT22;6974;53.606;9.872;2024-03-29T11:38:32;11.80;99.90
13806;DHT22;6974;53.606;9.872;2024-03-29T11:41:06;11.90;99.90
13806;DHT22;6974;53.606;9.872;2024-03-29T11:43:35;11.90;99.90
13806;DHT22;6974;53.606;9.872;2024-03-29T11:46:04;11.90;99.90
13806;DHT22;6974;53.606;9.872;2024-03-29T11:48:31;11.90;99.90
13806;DHT22;6974;53.606;9.872;2024-03-29T11:50:58;11.90;99.90
13806;DHT22;6974;53.606;9.872;2024-03-29T11:53:26;12.00;99.90
13806;DHT22;6974;53.606;9.872;2024-03-29T11:55:55;12.00;99.90
13806;DHT22;6974;53.606;9.872;2024-03-29T11:58:22;12.00;99.90
13806;DHT22;6974;53.606;9.872;2024-03-29T12:00:51;11.90;99.90
13806;DHT22;6974;53.606;9.872;2024-03-29T12:03:20;12.00;99.90
13806;DHT22;6974;53.606;9.872;2024-03-29T12:05:48;12.10;99.90
13806;DHT22;6974;53.606;9.872;2024-03-29T12:08:16;12.10;99.90
13806;DHT22;6974;53.606;9.872;2024-03-29T12:10:43;12.20;99.90
13806;DHT22;6974;53.606;9.872;2024-03-29T12:13:10;12.20;99.90
13806;DHT22;6974;53.606;9.872;2024-03-29T12:15:37;12.30;99.90
13806;DHT22;6974;53.606;9.872;2024-03-29T12:18:06;12.30;99.90
13806;DHT22;6974;53.606;9.872;2024-03-29T12:20:33;12.40;99.90
13806;DHT22;6974;53.606;9.872;2024-03-29T12:23:01;12.50;99.90
13806;DHT22;6974;53.606;9.872;2024-03-29T12:25:28;12.50;99.90
13806;DHT22;6974;53.606;9.872;2024-03-29T12:27:55;12.60;99.90
13806;DHT22;6974;53.606;9.872;2024-03-29T12:30:22;12.60;99.90
13806;DHT22;6974;53.606;9.872;2024-03-29T12:33:00;12.50;99.90
13806;DHT22;6974;53.606;9.872;2024-03-29T12:35:29;12.60;99.90
13806;DHT22;6974;53.606;9.872;2024-03-29T12:37:58;12.70;99.90
13806;DHT22;6974;53.606;9.872;2024-03-29T12:40:26;12.80;99.90
13806;DHT22;6974;53.606;9.872;2024-03-29T12:42:56;12.90;99.90
13806;DHT22;6974;53.606;9.872;2024-03-29T12:45:24;13.00;99.90
13806;DHT22;6974;53.606;9.872;2024-03-29T12:47:51;13.10;99.90
13806;DHT22;6974;53.606;9.872;2024-03-29T12:50:25;13.10;99.90
13806;DHT22;6974;53.606;9.872;2024-03-29T12:52:56;13.20;99.90
13806;DHT22;6974;53.606;9.872;2024-03-29T12:55:24;13.30;99.90
13806;DHT22;6974;53.606;9.872;2024-03-29T12:57:54;13.40;99.90
13806;DHT22;6974;53.606;9.872;2024-03-29T13:00:21;13.40;99.90
13806;DHT22;6974;53.606;9.872;2024-03-29T13:02:48;13.40;99.90
13806;DHT22;6974;53.606;9.872;2024-03-29T13:05:15;13.40;99.90
13806;DHT22;6974;53.606;9.872;2024-03-29T13:07:42;13.40;99.90
13806;DHT22;6974;53.606;9.872;2024-03-29T13:10:10;13.30;99.90
13806;DHT22;6974;53.606;9.872;2024-03-29T13:12:40;13.30;99.90
13806;DHT22;6974;53.606;9.872;2024-03-29T13:15:16;13.20;99.90
13806;DHT22;6974;53.606;9.872;2024-03-29T13:17:44;13.20;99.90
13806;DHT22;6974;53.606;9.872;2024-03-29T13:20:13;13.20;99.90
13806;DHT22;6974;53.606;9.872;2024-03-29T13:22:41;13.20;99.90
13806;DHT22;6974;53.606;9.872;2024-03-29T13:25:11;13.20;99.90
13806;DHT22;6974;53.606;9.872;2024-03-29T13:27:38;13.10;99.90
13806;DHT22;6974;53.606;9.872;2024-03-29T13:30:07;13.20;99.90
13806;DHT22;6974;53.606;9.872;2024-03-29T13:32:35;13.30;99.90
13806;DHT22;6974;53.606;9.872;2024-03-29T13:35:02;13.30;99.90
13806;DHT22;6974;53.606;9.872;2024-03-29T13:37:31;13.40;99.90
13806;DHT22;6974;53.606;9.872;2024-03-29T13:39:58;13.40;99.90
13806;DHT22;6974;53.606;9.872;2024-03-29T13:42:26;13.40;99.90
13806;DHT22;6974;53.606;9.872;2024-03-29T13:44:54;13.50;99.90
13806;DHT22;6974;53.606;9.872;2024-03-29T13:47:21;13.40;99.90
13806;DHT22;6974;53.606;9.872;2024-03-29T13:49:48;13.50;99.90
13806;DHT22;6974;53.606;9.872;2024-03-29T13:52:18;13.40;99.90
13806;DHT22;6974;53.606;9.872;2024-03-29T13:54:45;13.30;99.90
13806;DHT22;6974;53.606;9.872;2024-03-29T13:57:12;13.30;99.90
13806;DHT22;6974;53.606;9.872;2024-03-29T13:59:41;13.30;99.90
13806;DHT22;6974;53.606;9.872;2024-03-29T14:02:11;13.30;99.90
13806;DHT22;6974;53.606;9.872;2024-03-29T14:04:38;13.30;99.90
13806;DHT22;6974;53.606;9.872;2024-03-29T14:07:05;13.20;99.90
13806;DHT22;6974;53.606;9.872;2024-03-29T14:09:34;13.30;99.90
13806;DHT22;6974;53.606;9.872;2024-03-29T14:12:01;13.30;99.90
13806;DHT22;6974;53.606;9.872;2024-03-29T14:14:29;13.30;99.90
13806;DHT22;6974;53.606;9.872;2024-03-29T14:16:57;13.20;99.90
13806;DHT22;6974;53.606;9.872;2024-03-29T14:19:29;13.20;99.90
13806;DHT22;6974;53.606;9.872;2024-03-29T14:21:56;13.20;99.90
13806;DHT22;6974;53.606;9.872;2024-03-29T14:24:23;13.10;99.90
13806;DHT22;6974;53.606;9.872;2024-03-29T14:26:50;13.00;99.90
13806;DHT22;6974;53.606;9.872;2024-03-29T14:29:17;13.10;99.90
13806;DHT22;6974;53.606;9.872;2024-03-29T14:31:46;13.00;99.90
13806;DHT22;6974;53.606;9.872;2024-03-29T14:34:15;13.20;99.90
13806;DHT22;6974;53.606;9.872;2024-03-29T14:36:42;13.20;99.90
13806;DHT22;6974;53.606;9.872;2024-03-29T14:39:09;13.30;99.90
13806;DHT22;6974;53.606;9.872;2024-03-29T14:41:38;13.30;99.90
13806;DHT22;6974;53.606;9.872;2024-03-29T14:49:15;13.50;99.90
13806;DHT22;6974;53.606;9.872;2024-03-29T14:51:43;13.60;99.90
13806;DHT22;6974;53.606;9.872;2024-03-29T14:54:10;13.70;99.90
13806;DHT22;6974;53.606;9.872;2024-03-29T14:56:37;13.70;99.90
13806;DHT22;6974;53.606;9.872;2024-03-29T14:59:06;13.80;99.90
13806;DHT22;6974;53.606;9.872;2024-03-29T15:01:35;13.70;99.90
13806;DHT22;6974;53.606;9.872;2024-03-29T15:04:02;13.70;99.90
13806;DHT22;6974;53.606;9.872;2024-03-29T15:06:30;13.90;99.90
13806;DHT22;6974;53.606;9.872;2024-03-29T15:08:58;14.00;99.90
13806;DHT22;6974;53.606;9.872;2024-03-29T15:11:26;14.10;99.90
13806;DHT22;6974;53.606;9.872;2024-03-29T15:13:53;14.20;99.90
13806;DHT22;6974;53.606;9.872;2024-03-29T15:16:20;14.10;99.90
13806;DHT22;6974;53.606;9.872;2024-03-29T15:18:47;14.00;99.90
13806;DHT22;6974;53.606;9.872;2024-03-29T15:21:15;13.90;99.90
13806;DHT22;6974;53.606;9.872;2024-03-29T15:23:45;13.90;99.90
13806;DHT22;6974;53.606;9.872;2024-03-29T15:26:12;13.90;99.90
13806;DHT22;6974;53.606;9.872;2024-03-29T15:28:39;13.90;99.90
13806;DHT22;6974;53.606;9.872;2024-03-29T15:31:24;13.80;99.90
13806;DHT22;6974;53.606;9.872;2024-03-29T15:33:52;13.80;99.90
13806;DHT22;6974;53.606;9.872;2024-03-29T15:36:20;13.90;99.90
13806;DHT22;6974;53.606;9.872;2024-03-29T15:38:49;13.90;99.90
13806;DHT22;6974;53.606;9.872;2024-03-29T15:41:19;13.80;99.90
13806;DHT22;6974;53.606;9.872;2024-03-29T15:43:46;13.90;99.90
13806;DHT22;6974;53.606;9.872;2024-03-29T15:46:14;13.90;99.90
13806;DHT22;6974;53.606;9.872;2024-03-29T15:48:41;13.90;99.90
13806;DHT22;6974;53.606;9.872;2024-03-29T15:51:08;13.80;99.90
13806;DHT22;6974;53.606;9.872;2024-03-29T15:53:38;13.70;99.90
13806;DHT22;6974;53.606;9.872;2024-03-29T15:56:07;13.60;99.90
13806;DHT22;6974;53.606;9.872;2024-03-29T15:58:35;13.70;99.90
13806;DHT22;6974;53.606;9.872;2024-03-29T16:01:03;13.60;99.90
13806;DHT22;6974;53.606;9.872;2024-03-29T16:03:30;13.60;99.90
13806;DHT22;6974;53.606;9.872;2024-03-29T16:05:57;13.60;99.90